sensor_id;sensor_type;location;lat;lon;timestamp;temperature;humidity
63802;DHT22;49949;43.060;25.624;2024-02-04T00:00:44;1.00;99.90
63802;DHT22;49949;43.060;25.624;2024-02-04T00:03:10;1.10;99.90
63802;DHT22;49949;43.060;25.624;2024-02-04T00:05:35;1.20;99.90
63802;DHT22;49949;43.060;25.624;2024-02-04T00:08:01;1.30;99.90
63802;DHT22;49949;43.060;25.624;2024-02-04T00:10:28;1.30;99.90
63802;DHT22;49949;43.060;25.624;2024-02-04T00:12:54;1.30;99.90
63802;DHT22;49949;43.060;25.624;2024-02-04T00:15:19;1.40;99.90
63802;DHT22;49949;43.060;25.624;2024-02-04T00:17:45;1.40;99.90
63802;DHT22;49949;43.060;25.624;2024-02-04T00:20:11;1.50;99.90
63802;DHT22;49949;43.060;25.624;2024-02-04T00:22:37;1.50;99.90
63802;DHT22;49949;43.060;25.624;2024-02-04T00:25:03;1.50;99.90
63802;DHT22;49949;43.060;25.624;2024-02-04T00:27:33;1.50;99.90
63802;DHT22;49949;43.060;25.624;2024-02-04T00:29:59;1.60;99.90
63802;DHT22;49949;43.060;25.624;2024-02-04T00:32:25;1.60;99.90
63802;DHT22;49949;43.060;25.624;2024-02-04T00:34:52;1.70;99.90
63802;DHT22;49949;43.060;25.624;2024-02-04T00:37:18;1.70;99.90
63802;DHT22;49949;43.060;25.624;2024-02-04T00:39:44;1.70;99.90
63802;DHT22;49949;43.060;25.624;2024-02-04T00:42:09;1.80;99.90
63802;DHT22;49949;43.060;25.624;2024-02-04T00:44:35;1.70;99.90
63802;DHT22;49949;43.060;25.624;2024-02-04T00:47:01;1.80;99.90
63802;DHT22;49949;43.060;25.624;2024-02-04T00:49:27;1.80;99.90
63802;DHT22;49949;43.060;25.624;2024-02-04T00:51:53;1.80;99.90
63802;DHT22;49949;43.060;25.624;2024-02-04T00:54:18;1.70;99.90
63802;DHT22;49949;43.060;25.624;2024-02-04T00:56:44;1.80;99.90
63802;DHT22;49949;43.060;25.624;2024-02-04T00:59:10;1.80;99.90
63802;DHT22;49949;43.060;25.624;2024-02-04T01:01:37;1.80;99.90
63802;DHT22;49949;43.060;25.624;2024-02-04T01:04:03;1.80;99.90
63802;DHT22;49949;43.060;25.624;2024-02-04T01:06:28;1.80;99.90
63802;DHT22;49949;43.060;25.624;2024-02-04T01:08:56;1.80;99.90
63802;DHT22;49949;43.060;25.624;2024-02-04T01:11:21;1.90;99.90
63802;DHT22;49949;43.060;25.624;2024-02-04T01:13:47;1.90;99.90
63802;DHT22;49949;43.060;25.624;2024-02-04T01:16:13;1.90;99.90
63802;DHT22;49949;43.060;25.624;2024-02-04T01:18:39;1.90;99.90
63802;DHT22;49949;43.060;25.624;2024-02-04T01:21:05;2.00;99.90
63802;DHT22;49949;43.060;25.624;2024-02-04T01:23:30;1.90;99.90
63802;DHT22;49949;43.060;25.624;2024-02-04T01:25:56;1.90;99.90
63802;DHT22;49949;43.060;25.624;2024-02-04T01:28:22;2.00;99.90
63802;DHT22;49949;43.060;25.624;2024-02-04T01:30:47;2.00;99.90
63802;DHT22;49949;43.060;25.624;2024-02-04T01:33:13;2.10;99.90
63802;DHT22;49949;43.060;25.624;2024-02-04T01:35:39;2.10;99.90
63802;DHT22;49949;43.060;25.624;2024-02-04T01:38:04;2.00;99.90
63802;DHT22;49949;43.060;25.624;2024-02-04T01:40:30;1.90;99.90
63802;DHT22;49949;43.060;25.624;2024-02-04T01:42:56;1.90;99.90
63802;DHT22;49949;43.060;25.624;2024-02-04T01:45:22;2.00;99.90
63802;DHT22;49949;43.060;25.624;2024-02-04T01:47:48;2.00;99.90
63802;DHT22;49949;43.060;25.624;2024-02-04T01:50:15;2.00;99.90
63802;DHT22;49949;43.060;25.624;2024-02-04T01:52:42;1.90;99.90
63802;DHT22;49949;43.060;25.624;2024-02-04T01:55:09;2.00;99.90
63802;DHT22;49949;43.060;25.624;2024-02-04T01:57:35;2.10;99.90
63802;DHT22;49949;43.060;25.624;2024-02-04T02:00:01;2.10;99.90
63802;DHT22;49949;43.060;25.624;2024-02-04T02:02:27;2.10;99.90
63802;DHT22;49949;43.060;25.624;2024-02-04T02:04:54;2.20;99.90
63802;DHT22;49949;43.060;25.624;2024-02-04T02:07:20;2.20;99.90
63802;DHT22;49949;43.060;25.624;2024-02-04T02:09:47;2.20;99.90
63802;DHT22;49949;43.060;25.624;2024-02-04T02:12:23;2.10;99.90
63802;DHT22;49949;43.060;25.624;2024-02-04T02:14:56;2.20;99.90
63802;DHT22;49949;43.060;25.624;2024-02-04T02:17:35;2.20;99.90
63802;DHT22;49949;43.060;25.624;2024-02-04T02:20:14;2.30;99.90
63802;DHT22;49949;43.060;25.624;2024-02-04T02:22:55;2.40;99.90
63802;DHT22;49949;43.060;25.624;2024-02-04T02:25:27;2.50;99.90
63802;DHT22;49949;43.060;25.624;2024-02-04T02:27:52;2.40;99.90
63802;DHT22;49949;43.060;25.624;2024-02-04T02:30:18;2.40;99.90
63802;DHT22;49949;43.060;25.624;2024-02-04T02:32:45;2.50;99.90
63802;DHT22;49949;43.060;25.624;2024-02-04T02:35:15;2.50;99.90
63802;DHT22;49949;43.060;25.624;2024-02-04T02:37:56;2.60;99.90
63802;DHT22;49949;43.060;25.624;2024-02-04T02:40:34;2.60;99.90
63802;DHT22;49949;43.060;25.624;2024-02-04T02:43:03;2.60;99.90
63802;DHT22;49949;43.060;25.624;2024-02-04T02:45:29;2.60;99.90
63802;DHT22;49949;43.060;25.624;2024-02-04T02:47:56;2.70;99.90
63802;DHT22;49949;43.060;25.624;2024-02-04T02:50:23;2.70;99.90
63802;DHT22;49949;43.060;25.624;2024-02-04T02:52:49;2.80;99.90
63802;DHT22;49949;43.060;25.624;2024-02-04T02:55:15;2.80;99.90
63802;DHT22;49949;43.060;25.624;2024-02-04T02:57:41;2.80;99.90
63802;DHT22;49949;43.060;25.624;2024-02-04T03:00:07;2.80;99.90
63802;DHT22;49949;43.060;25.624;2024-02-04T03:02:34;2.90;99.90
63802;DHT22;49949;43.060;25.624;2024-02-04T03:05:00;2.90;99.90
63802;DHT22;49949;43.060;25.624;2024-02-04T03:07:26;2.90;99.90
63802;DHT22;49949;43.060;25.624;2024-02-04T03:09:53;3.00;99.90
63802;DHT22;49949;43.060;25.624;2024-02-04T03:12:19;3.00;99.90
63802;DHT22;49949;43.060;25.624;2024-02-04T03:14:45;3.10;99.90
63802;DHT22;49949;43.060;25.624;2024-02-04T03:17:11;3.10;99.90
63802;DHT22;49949;43.060;25.624;2024-02-04T03:19:37;3.20;99.90
63802;DHT22;49949;43.060;25.624;2024-02-04T03:22:03;3.20;99.90
63802;DHT22;49949;43.060;25.624;2024-02-04T03:24:29;3.30;99.90
63802;DHT22;49949;43.060;25.624;2024-02-04T03:26:54;3.40;99.90
63802;DHT22;49949;43.060;25.624;2024-02-04T03:29:20;3.40;99.90
63802;DHT22;49949;43.060;25.624;2024-02-04T03:31:46;3.40;99.90
63802;DHT22;49949;43.060;25.624;2024-02-04T03:34:11;3.40;99.90
63802;DHT22;49949;43.060;25.624;2024-02-04T03:36:37;3.50;99.90
63802;DHT22;49949;43.060;25.624;2024-02-04T03:39:06;3.50;99.90
63802;DHT22;49949;43.060;25.624;2024-02-04T03:41:31;3.60;99.90
63802;DHT22;49949;43.060;25.624;2024-02-04T03:43:57;3.70;99.90
63802;DHT22;49949;43.060;25.624;2024-02-04T03:46:22;3.70;99.90
63802;DHT22;49949;43.060;25.624;2024-02-04T03:48:48;3.70;99.90
63802;DHT22;49949;43.060;25.624;2024-02-04T03:51:18;3.80;99.90
63802;DHT22;49949;43.060;25.624;2024-02-04T03:53:44;3.90;99.90
63802;DHT22;49949;43.060;25.624;2024-02-04T03:56:11;4.00;99.90
63802;DHT22;49949;43.060;25.624;2024-02-04T03:58:36;4.10;99.90
63802;DHT22;49949;43.060;25.624;2024-02-04T04:01:02;4.10;99.90
63802;DHT22;49949;43.060;25.624;2024-02-04T04:03:28;4.20;99.90
63802;DHT22;49949;43.060;25.624;2024-02-04T04:05:54;4.30;99.90
63802;DHT22;49949;43.060;25.624;2024-02-04T04:08:19;4.40;99.90
63802;DHT22;49949;43.060;25.624;2024-02-04T04:10:45;4.50;99.90
63802;DHT22;49949;43.060;25.624;2024-02-04T04:13:11;4.50;99.90
63802;DHT22;49949;43.060;25.624;2024-02-04T04:15:37;4.60;99.90
63802;DHT22;49949;43.060;25.624;2024-02-04T04:18:04;4.80;99.90
63802;DHT22;49949;43.060;25.624;2024-02-04T04:20:29;5.00;99.90
63802;DHT22;49949;43.060;25.624;2024-02-04T04:22:55;5.20;99.90
63802;DHT22;49949;43.060;25.624;2024-02-04T04:25:21;5.60;99.90
63802;DHT22;49949;43.060;25.624;2024-02-04T04:27:46;5.80;99.90
63802;DHT22;49949;43.060;25.624;2024-02-04T04:30:12;6.10;99.90
63802;DHT22;49949;43.060;25.624;2024-02-04T04:32:38;6.40;99.90
63802;DHT22;49949;43.060;25.624;2024-02-04T04:35:04;6.80;99.90
63802;DHT22;49949;43.060;25.624;2024-02-04T04:37:29;6.90;99.90
63802;DHT22;49949;43.060;25.624;2024-02-04T04:39:55;7.00;99.90
63802;DHT22;49949;43.060;25.624;2024-02-04T04:42:21;7.30;99.90
63802;DHT22;49949;43.060;25.624;2024-02-04T04:44:47;7.40;99.90
63802;DHT22;49949;43.060;25.624;2024-02-04T04:47:14;7.70;99.90
63802;DHT22;49949;43.060;25.624;2024-02-04T04:49:39;8.00;99.90
63802;DHT22;49949;43.060;25.624;2024-02-04T04:52:05;8.10;99.90
63802;DHT22;49949;43.060;25.624;2024-02-04T04:54:31;8.10;99.90
63802;DHT22;49949;43.060;25.624;2024-02-04T04:56:57;8.30;99.90
63802;DHT22;49949;43.060;25.624;2024-02-04T04:59:22;8.40;99.90
63802;DHT22;49949;43.060;25.624;2024-02-04T05:01:48;8.50;99.90
63802;DHT22;49949;43.060;25.624;2024-02-04T05:04:16;8.60;99.90
63802;DHT22;49949;43.060;25.624;2024-02-04T05:06:41;8.50;99.90
63802;DHT22;49949;43.060;25.624;2024-02-04T05:09:07;8.50;99.90
63802;DHT22;49949;43.060;25.624;2024-02-04T05:11:33;8.60;99.90
63802;DHT22;49949;43.060;25.624;2024-02-04T05:13:58;8.50;99.90
63802;DHT22;49949;43.060;25.624;2024-02-04T05:16:24;8.50;99.90
63802;DHT22;49949;43.060;25.624;2024-02-04T05:18:50;8.50;99.90
63802;DHT22;49949;43.060;25.624;2024-02-04T05:21:16;8.60;99.90
63802;DHT22;49949;43.060;25.624;2024-02-04T05:23:41;8.70;99.90
63802;DHT22;49949;43.060;25.624;2024-02-04T05:26:07;8.80;99.90
63802;DHT22;49949;43.060;25.624;2024-02-04T05:28:33;8.90;99.90
63802;DHT22;49949;43.060;25.624;2024-02-04T05:30:58;9.00;99.90
63802;DHT22;49949;43.060;25.624;2024-02-04T05:33:24;9.00;99.90
63802;DHT22;49949;43.060;25.624;2024-02-04T05:35:50;9.00;99.90
63802;DHT22;49949;43.060;25.624;2024-02-04T05:38:18;9.10;99.90
63802;DHT22;49949;43.060;25.624;2024-02-04T05:40:44;8.90;99.90
63802;DHT22;49949;43.060;25.624;2024-02-04T05:43:10;8.80;99.90
63802;DHT22;49949;43.060;25.624;2024-02-04T05:45:39;8.90;99.90
63802;DHT22;49949;43.060;25.624;2024-02-04T05:48:07;9.00;99.90
63802;DHT22;49949;43.060;25.624;2024-02-04T05:50:33;8.90;99.90
63802;DHT22;49949;43.060;25.624;2024-02-04T05:52:59;9.00;99.90
63802;DHT22;49949;43.060;25.624;2024-02-04T05:55:24;8.90;99.90
63802;DHT22;49949;43.060;25.624;2024-02-04T05:57:50;8.80;99.90
63802;DHT22;49949;43.060;25.624;2024-02-04T06:00:16;8.80;99.90
63802;DHT22;49949;43.060;25.624;2024-02-04T06:02:42;8.80;99.90
63802;DHT22;49949;43.060;25.624;2024-02-04T06:05:09;8.90;99.90
63802;DHT22;49949;43.060;25.624;2024-02-04T06:07:35;8.70;99.90
63802;DHT22;49949;43.060;25.624;2024-02-04T06:10:00;8.80;99.90
63802;DHT22;49949;43.060;25.624;2024-02-04T06:12:31;8.80;99.90
63802;DHT22;49949;43.060;25.624;2024-02-04T06:14:57;8.80;99.90
63802;DHT22;49949;43.060;25.624;2024-02-04T06:17:23;8.80;99.90
63802;DHT22;49949;43.060;25.624;2024-02-04T06:19:48;8.70;99.90
63802;DHT22;49949;43.060;25.624;2024-02-04T06:22:15;8.60;99.90
63802;DHT22;49949;43.060;25.624;2024-02-04T06:24:41;8.50;99.90
63802;DHT22;49949;43.060;25.624;2024-02-04T06:27:10;8.70;99.90
63802;DHT22;49949;43.060;25.624;2024-02-04T06:29:36;8.60;99.90
63802;DHT22;49949;43.060;25.624;2024-02-04T06:32:03;8.50;99.90
63802;DHT22;49949;43.060;25.624;2024-02-04T06:34:28;8.50;99.90
63802;DHT22;49949;43.060;25.624;2024-02-04T06:36:54;8.60;99.90
63802;DHT22;49949;43.060;25.624;2024-02-04T06:39:20;8.70;99.90
63802;DHT22;49949;43.060;25.624;2024-02-04T06:41:46;8.60;99.90
63802;DHT22;49949;43.060;25.624;2024-02-04T06:44:11;8.60;99.90
63802;DHT22;49949;43.060;25.624;2024-02-04T06:46:37;8.70;99.90
63802;DHT22;49949;43.060;25.624;2024-02-04T06:49:03;8.80;99.90
63802;DHT22;49949;43.060;25.624;2024-02-04T06:51:29;8.90;99.90
63802;DHT22;49949;43.060;25.624;2024-02-04T06:53:55;8.70;99.90
63802;DHT22;49949;43.060;25.624;2024-02-04T06:56:20;8.70;99.90
63802;DHT22;49949;43.060;25.624;2024-02-04T06:58:46;8.80;99.90
63802;DHT22;49949;43.060;25.624;2024-02-04T07:01:12;8.80;99.90
63802;DHT22;49949;43.060;25.624;2024-02-04T07:03:38;8.80;99.90
63802;DHT22;49949;43.060;25.624;2024-02-04T07:06:04;8.70;99.90
63802;DHT22;49949;43.060;25.624;2024-02-04T07:08:29;8.80;99.90
63802;DHT22;49949;43.060;25.624;2024-02-04T07:10:55;9.00;99.90
63802;DHT22;49949;43.060;25.624;2024-02-04T07:13:21;9.10;99.90
63802;DHT22;49949;43.060;25.624;2024-02-04T07:15:47;9.20;99.90
63802;DHT22;49949;43.060;25.624;2024-02-04T07:18:13;9.10;99.90
63802;DHT22;49949;43.060;25.624;2024-02-04T07:20:38;9.10;99.90
63802;DHT22;49949;43.060;25.624;2024-02-04T07:23:05;9.20;99.90
63802;DHT22;49949;43.060;25.624;2024-02-04T07:25:31;9.30;99.90
63802;DHT22;49949;43.060;25.624;2024-02-04T07:27:57;9.40;99.90
63802;DHT22;49949;43.060;25.624;2024-02-04T07:30:24;9.40;99.90
63802;DHT22;49949;43.060;25.624;2024-02-04T07:32:49;9.40;99.90
63802;DHT22;49949;43.060;25.624;2024-02-04T07:35:15;9.40;99.90
63802;DHT22;49949;43.060;25.624;2024-02-04T07:37:41;9.50;99.90
63802;DHT22;49949;43.060;25.624;2024-02-04T07:40:07;9.60;99.90
63802;DHT22;49949;43.060;25.624;2024-02-04T07:42:33;9.60;99.90
63802;DHT22;49949;43.060;25.624;2024-02-04T07:44:58;9.70;99.90
63802;DHT22;49949;43.060;25.624;2024-02-04T07:47:24;9.70;99.90
63802;DHT22;49949;43.060;25.624;2024-02-04T07:49:50;9.70;99.90
63802;DHT22;49949;43.060;25.624;2024-02-04T07:52:16;9.80;99.90
63802;DHT22;49949;43.060;25.624;2024-02-04T07:54:42;9.90;99.90
63802;DHT22;49949;43.060;25.624;2024-02-04T07:57:12;9.90;99.90
63802;DHT22;49949;43.060;25.624;2024-02-04T07:59:38;10.10;99.90
63802;DHT22;49949;43.060;25.624;2024-02-04T08:02:03;10.20;99.90
63802;DHT22;49949;43.060;25.624;2024-02-04T08:04:30;10.20;99.90
63802;DHT22;49949;43.060;25.624;2024-02-04T08:06:55;10.20;99.90
63802;DHT22;49949;43.060;25.624;2024-02-04T08:09:21;10.30;99.90
63802;DHT22;49949;43.060;25.624;2024-02-04T08:11:47;10.40;99.90
63802;DHT22;49949;43.060;25.624;2024-02-04T08:14:13;10.50;99.90
63802;DHT22;49949;43.060;25.624;2024-02-04T08:16:43;10.60;99.90
63802;DHT22;49949;43.060;25.624;2024-02-04T08:19:08;10.50;99.90
63802;DHT22;49949;43.060;25.624;2024-02-04T08:21:34;10.60;99.90
63802;DHT22;49949;43.060;25.624;2024-02-04T08:24:00;10.60;99.90
63802;DHT22;49949;43.060;25.624;2024-02-04T08:26:26;10.70;99.90
63802;DHT22;49949;43.060;25.624;2024-02-04T08:28:51;10.70;99.90
63802;DHT22;49949;43.060;25.624;2024-02-04T08:31:17;10.90;99.90
63802;DHT22;49949;43.060;25.624;2024-02-04T08:33:43;10.90;99.90
63802;DHT22;49949;43.060;25.624;2024-02-04T08:36:08;11.00;99.90
63802;DHT22;49949;43.060;25.624;2024-02-04T08:38:36;11.00;99.90
63802;DHT22;49949;43.060;25.624;2024-02-04T08:41:03;11.10;99.90
63802;DHT22;49949;43.060;25.624;2024-02-04T08:43:29;11.10;99.90
63802;DHT22;49949;43.060;25.624;2024-02-04T08:45:54;11.10;99.90
63802;DHT22;49949;43.060;25.624;2024-02-04T08:48:20;11.00;99.90
63802;DHT22;49949;43.060;25.624;2024-02-04T08:50:46;11.00;99.90
63802;DHT22;49949;43.060;25.624;2024-02-04T08:53:11;11.00;99.90
63802;DHT22;49949;43.060;25.624;2024-02-04T08:55:37;11.10;99.90
63802;DHT22;49949;43.060;25.624;2024-02-04T08:58:03;11.20;99.90
63802;DHT22;49949;43.060;25.624;2024-02-04T09:00:29;11.20;99.90
63802;DHT22;49949;43.060;25.624;2024-02-04T09:02:54;11.10;99.90
63802;DHT22;49949;43.060;25.624;2024-02-04T09:05:21;11.30;99.90
63802;DHT22;49949;43.060;25.624;2024-02-04T09:07:46;11.30;99.90
63802;DHT22;49949;43.060;25.624;2024-02-04T09:10:12;11.40;99.90
63802;DHT22;49949;43.060;25.624;2024-02-04T09:12:38;11.50;99.90
63802;DHT22;49949;43.060;25.624;2024-02-04T09:15:04;11.50;99.90
63802;DHT22;49949;43.060;25.624;2024-02-04T09:17:31;11.50;99.90
63802;DHT22;49949;43.060;25.624;2024-02-04T09:19:59;11.50;99.90
63802;DHT22;49949;43.060;25.624;2024-02-04T09:22:25;11.60;99.90
63802;DHT22;49949;43.060;25.624;2024-02-04T09:24:50;11.80;99.90
63802;DHT22;49949;43.060;25.624;2024-02-04T09:27:16;11.90;99.90
63802;DHT22;49949;43.060;25.624;2024-02-04T09:29:42;12.00;99.90
63802;DHT22;49949;43.060;25.624;2024-02-04T09:32:07;12.00;99.90
63802;DHT22;49949;43.060;25.624;2024-02-04T09:34:33;11.90;99.90
63802;DHT22;49949;43.060;25.624;2024-02-04T09:36:59;11.90;99.90
63802;DHT22;49949;43.060;25.624;2024-02-04T09:39:26;12.10;99.90
63802;DHT22;49949;43.060;25.624;2024-02-04T09:41:52;12.20;99.90
63802;DHT22;49949;43.060;25.624;2024-02-04T09:44:19;12.30;99.90
63802;DHT22;49949;43.060;25.624;2024-02-04T09:46:46;12.40;99.90
63802;DHT22;49949;43.060;25.624;2024-02-04T09:49:13;12.40;99.90
63802;DHT22;49949;43.060;25.624;2024-02-04T09:51:40;12.40;99.90
63802;DHT22;49949;43.060;25.624;2024-02-04T09:54:09;12.50;99.90
63802;DHT22;49949;43.060;25.624;2024-02-04T09:56:35;12.70;99.90
63802;DHT22;49949;43.060;25.624;2024-02-04T09:59:03;12.70;99.90
63802;DHT22;49949;43.060;25.624;2024-02-04T10:01:29;12.60;99.90
63802;DHT22;49949;43.060;25.624;2024-02-04T10:03:55;12.60;99.90
63802;DHT22;49949;43.060;25.624;2024-02-04T10:06:21;12.60;99.90
63802;DHT22;49949;43.060;25.624;2024-02-04T10:08:46;12.60;99.90
63802;DHT22;49949;43.060;25.624;2024-02-04T10:11:13;12.60;99.90
63802;DHT22;49949;43.060;25.624;2024-02-04T10:13:49;12.60;99.90
63802;DHT22;49949;43.060;25.624;2024-02-04T10:16:18;12.60;99.90
63802;DHT22;49949;43.060;25.624;2024-02-04T10:18:45;12.70;99.90
63802;DHT22;49949;43.060;25.624;2024-02-04T10:21:21;12.70;99.90
63802;DHT22;49949;43.060;25.624;2024-02-04T10:23:47;12.90;99.90
63802;DHT22;49949;43.060;25.624;2024-02-04T10:26:13;12.80;99.90
63802;DHT22;49949;43.060;25.624;2024-02-04T10:28:39;12.80;99.90
63802;DHT22;49949;43.060;25.624;2024-02-04T10:31:08;12.60;99.90
63802;DHT22;49949;43.060;25.624;2024-02-04T10:33:35;12.60;99.90
63802;DHT22;49949;43.060;25.624;2024-02-04T10:36:01;12.70;99.90
63802;DHT22;49949;43.060;25.624;2024-02-04T10:38:26;12.90;99.90
63802;DHT22;49949;43.060;25.624;2024-02-04T10:40:53;13.00;99.90
63802;DHT22;49949;43.060;25.624;2024-02-04T10:43:21;13.00;99.90
63802;DHT22;49949;43.060;25.624;2024-02-04T10:45:47;13.00;99.90
63802;DHT22;49949;43.060;25.624;2024-02-04T10:48:15;13.20;99.90
63802;DHT22;49949;43.060;25.624;2024-02-04T10:50:46;13.30;99.90
63802;DHT22;49949;43.060;25.624;2024-02-04T10:53:14;13.30;99.90
63802;DHT22;49949;43.060;25.624;2024-02-04T10:55:45;13.40;99.90
63802;DHT22;49949;43.060;25.624;2024-02-04T10:58:13;13.10;99.90
63802;DHT22;49949;43.060;25.624;2024-02-04T11:00:40;13.00;99.90
63802;DHT22;49949;43.060;25.624;2024-02-04T11:03:06;12.90;99.90
63802;DHT22;49949;43.060;25.624;2024-02-04T11:05:34;12.90;99.90
63802;DHT22;49949;43.060;25.624;2024-02-04T11:08:02;12.80;99.90
63802;DHT22;49949;43.060;25.624;2024-02-04T11:10:30;12.80;99.90
63802;DHT22;49949;43.060;25.624;2024-02-04T11:12:58;12.80;99.90
63802;DHT22;49949;43.060;25.624;2024-02-04T11:15:28;12.90;99.90
63802;DHT22;49949;43.060;25.624;2024-02-04T11:26:57;13.10;99.90
63802;DHT22;49949;43.060;25.624;2024-02-04T11:29:24;13.00;99.90
63802;DHT22;49949;43.060;25.624;2024-02-04T11:31:51;13.00;99.90
63802;DHT22;49949;43.060;25.624;2024-02-04T11:34:17;13.00;99.90
63802;DHT22;49949;43.060;25.624;2024-02-04T11:36:42;13.00;99.90
63802;DHT22;49949;43.060;25.624;2024-02-04T11:39:13;12.90;99.90
63802;DHT22;49949;43.060;25.624;2024-02-04T11:41:49;12.90;99.90
63802;DHT22;49949;43.060;25.624;2024-02-04T11:44:25;12.80;99.90
63802;DHT22;49949;43.060;25.624;2024-02-04T11:46:52;12.80;99.90
63802;DHT22;49949;43.060;25.624;2024-02-04T11:49:18;12.80;99.90
63802;DHT22;49949;43.060;25.624;2024-02-04T11:51:48;12.80;99.90
63802;DHT22;49949;43.060;25.624;2024-02-04T11:54:16;12.80;99.90
63802;DHT22;49949;43.060;25.624;2024-02-04T11:56:45;12.90;99.90
63802;DHT22;49949;43.060;25.624;2024-02-04T11:59:14;13.00;99.90
63802;DHT22;49949;43.060;25.624;2024-02-04T12:01:40;13.20;99.90
63802;DHT22;49949;43.060;25.624;2024-02-04T12:04:13;13.20;99.90
63802;DHT22;49949;43.060;25.624;2024-02-04T12:06:41;13.10;99.90
63802;DHT22;49949;43.060;25.624;2024-02-04T12:09:08;13.00;99.90
63802;DHT22;49949;43.060;25.624;2024-02-04T12:11:37;13.00;99.90
63802;DHT22;49949;43.060;25.624;2024-02-04T12:14:07;12.90;99.90
63802;DHT22;49949;43.060;25.624;2024-02-04T12:16:33;12.90;99.90
63802;DHT22;49949;43.060;25.624;2024-02-04T12:19:04;12.70;99.90
63802;DHT22;49949;43.060;25.624;2024-02-04T12:21:30;12.80;99.90
63802;DHT22;49949;43.060;25.624;2024-02-04T12:23:58;13.00;99.90
63802;DHT22;49949;43.060;25.624;2024-02-04T12:26:24;13.10;99.90
63802;DHT22;49949;43.060;25.624;2024-02-04T12:28:53;13.00;99.90
63802;DHT22;49949;43.060;25.624;2024-02-04T12:31:19;12.90;99.90
63802;DHT22;49949;43.060;25.624;2024-02-04T12:33:59;12.90;99.90
63802;DHT22;49949;43.060;25.624;2024-02-04T12:36:31;12.80;99.90
63802;DHT22;49949;43.060;25.624;2024-02-04T12:38:58;12.80;99.90
63802;DHT22;49949;43.060;25.624;2024-02-04T12:41:25;12.90;99.90
63802;DHT22;49949;43.060;25.624;2024-02-04T12:43:53;13.00;99.90
63802;DHT22;49949;43.060;25.624;2024-02-04T12:46:20;12.90;99.90
63802;DHT22;49949;43.060;25.624;2024-02-04T12:48:54;13.00;99.90
63802;DHT22;49949;43.060;25.624;2024-02-04T12:51:27;12.90;99.90
63802;DHT22;49949;43.060;25.624;2024-02-04T12:54:05;13.00;99.90
63802;DHT22;49949;43.060;25.624;2024-02-04T12:56:41;13.00;99.90
63802;DHT22;49949;43.060;25.624;2024-02-04T12:59:08;13.00;99.90
63802;DHT22;49949;43.060;25.624;2024-02-04T13:01:36;12.90;99.90
63802;DHT22;49949;43.060;25.624;2024-02-04T13:04:01;12.90;99.90
63802;DHT22;49949;43.060;25.624;2024-02-04T13:06:27;12.90;99.90
63802;DHT22;49949;43.060;25.624;2024-02-04T13:08:56;13.00;99.90
63802;DHT22;49949;43.060;25.624;2024-02-04T13:11:24;13.00;99.90
63802;DHT22;49949;43.060;25.624;2024-02-04T13:13:50;13.00;99.90
63802;DHT22;49949;43.060;25.624;2024-02-04T13:16:16;13.10;99.90
63802;DHT22;49949;43.060;25.624;2024-02-04T13:18:51;13.10;99.90
63802;DHT22;49949;43.060;25.624;2024-02-04T13:21:17;13.20;99.90
63802;DHT22;49949;43.060;25.624;2024-02-04T13:23:45;13.20;99.90
63802;DHT22;49949;43.060;25.624;2024-02-04T13:26:11;13.10;99.90
63802;DHT22;49949;43.060;25.624;2024-02-04T13:28:37;13.10;99.90
63802;DHT22;49949;43.060;25.624;2024-02-04T13:31:04;13.20;99.90
63802;DHT22;49949;43.060;25.624;2024-02-04T13:33:30;13.10;99.90
63802;DHT22;49949;43.060;25.624;2024-02-04T13:35:55;13.20;99.90
63802;DHT22;49949;43.060;25.624;2024-02-04T13:38:22;13.10;99.90
63802;DHT22;49949;43.060;25.624;2024-02-04T13:40:48;12.90;99.90
63802;DHT22;49949;43.060;25.624;2024-02-04T13:43:13;12.90;99.90
63802;DHT22;49949;43.060;25.624;2024-02-04T13:45:39;13.00;99.90
63802;DHT22;49949;43.060;25.624;2024-02-04T13:48:05;13.00;99.90
63802;DHT22;49949;43.060;25.624;2024-02-04T13:50:31;13.00;99.90
63802;DHT22;49949;43.060;25.624;2024-02-04T13:52:57;13.10;99.90
63802;DHT22;49949;43.060;25.624;2024-02-04T13:55:24;13.10;99.90
63802;DHT22;49949;43.060;25.624;2024-02-04T13:57:50;13.20;99.90
63802;DHT22;49949;43.060;25.624;2024-02-04T14:00:16;13.20;99.90
63802;DHT22;49949;43.060;25.624;2024-02-04T14:02:43;13.20;99.90
63802;DHT22;49949;43.060;25.624;2024-02-04T14:05:09;13.20;99.90
63802;DHT22;49949;43.060;25.624;2024-02-04T14:07:34;13.30;99.90
63802;DHT22;49949;43.060;25.624;2024-02-04T14:10:00;13.40;99.90
63802;DHT22;49949;43.060;25.624;2024-02-04T14:12:26;13.40;99.90
63802;DHT22;49949;43.060;25.624;2024-02-04T14:14:51;13.50;99.90
63802;DHT22;49949;43.060;25.624;2024-02-04T14:17:19;13.60;99.90
63802;DHT22;49949;43.060;25.624;2024-02-04T14:19:45;13.60;99.90
63802;DHT22;49949;43.060;25.624;2024-02-04T14:22:14;13.60;99.90
63802;DHT22;49949;43.060;25.624;2024-02-04T14:24:40;13.60;99.90
63802;DHT22;49949;43.060;25.624;2024-02-04T14:27:05;13.60;99.90
63802;DHT22;49949;43.060;25.624;2024-02-04T14:29:31;13.60;99.90
63802;DHT22;49949;43.060;25.624;2024-02-04T14:31:57;13.60;99.90
63802;DHT22;49949;43.060;25.624;2024-02-04T14:34:23;13.40;99.90
63802;DHT22;49949;43.060;25.624;2024-02-04T14:36:49;13.30;99.90
63802;DHT22;49949;43.060;25.624;2024-02-04T14:39:15;13.20;99.90
63802;DHT22;49949;43.060;25.624;2024-02-04T14:41:41;13.30;99.90
63802;DHT22;49949;43.060;25.624;2024-02-04T14:44:07;13.20;99.90
63802;DHT22;49949;43.060;25.624;2024-02-04T14:46:36;13.20;99.90
63802;DHT22;49949;43.060;25.624;2024-02-04T14:49:02;13.00;99.90
63802;DHT22;49949;43.060;25.624;2024-02-04T14:51:30;13.00;99.90
63802;DHT22;49949;43.060;25.624;2024-02-04T14:53:57;12.90;99.90
63802;DHT22;49949;43.060;25.624;2024-02-04T14:56:23;12.70;99.90
63802;DHT22;49949;43.060;25.624;2024-02-04T14:58:49;12.60;99.90
63802;DHT22;49949;43.060;25.624;2024-02-04T15:01:15;12.40;99.90
63802;DHT22;49949;43.060;25.624;2024-02-04T15:03:41;12.10;99.90
63802;DHT22;49949;43.060;25.624;2024-02-04T15:06:07;12.00;99.90
63802;DHT22;49949;43.060;25.624;2024-02-04T15:08:32;12.00;99.90
63802;DHT22;49949;43.060;25.624;2024-02-04T15:10:58;12.00;99.90
63802;DHT22;49949;43.060;25.624;2024-02-04T15:13:25;12.00;99.90
63802;DHT22;49949;43.060;25.624;2024-02-04T15:15:51;12.00;99.90
63802;DHT22;49949;43.060;25.624;2024-02-04T15:18:17;11.90;99.90
63802;DHT22;49949;43.060;25.624;2024-02-04T15:20:43;11.90;99.90
63802;DHT22;49949;43.060;25.624;2024-02-04T15:23:09;11.90;99.90
63802;DHT22;49949;43.060;25.624;2024-02-04T15:25:35;11.90;99.90
63802;DHT22;49949;43.060;25.624;2024-02-04T15:28:01;11.80;99.90